createdAt,value
2023-05-24T00:00:53.341Z,97274.30
2023-05-24T00:03:30.894Z,97273.87
2023-05-24T00:05:59.189Z,97271.59
2023-05-24T00:08:27.348Z,97269.56
2023-05-24T00:10:55.325Z,97265.44
2023-05-24T00:13:23.295Z,97266.33
2023-05-24T00:15:51.572Z,97264.30
2023-05-24T00:18:19.632Z,97266.53
2023-05-24T00:20:47.990Z,97264.00
2023-05-24T00:23:16.203Z,97262.88
2023-05-24T00:25:44.784Z,97262.34
2023-05-24T00:28:12.948Z,97264.45
2023-05-24T00:30:41.240Z,97261.62
2023-05-24T00:33:09.576Z,97256.88
2023-05-24T00:35:37.630Z,97259.15
2023-05-24T00:38:05.808Z,97256.77
2023-05-24T00:40:34.178Z,97256.31
2023-05-24T00:43:02.197Z,97254.87
2023-05-24T00:45:32.360Z,97251.42
2023-05-24T00:48:02.080Z,97247.23
2023-05-24T00:50:30.308Z,97250.52
2023-05-24T00:53:02.361Z,97248.94
2023-05-24T00:55:30.753Z,97249.44
2023-05-24T00:57:58.708Z,97249.33
2023-05-24T01:00:28.069Z,97250.13
2023-05-24T01:02:57.235Z,97253.53
2023-05-24T01:05:25.518Z,97258.16
2023-05-24T01:08:11.779Z,97271.92
2023-05-24T01:11:24.789Z,97285.27
2023-05-24T01:14:16.361Z,97289.78
2023-05-24T01:16:56.547Z,97288.41
2023-05-24T01:19:27.518Z,97283.91
2023-05-24T01:22:09.338Z,97286.60
2023-05-24T01:24:53.767Z,97284.31
2023-05-24T01:27:24.089Z,97283.55
2023-05-24T01:29:55.727Z,97280.92
2023-05-24T01:32:24.702Z,97281.61
2023-05-24T01:34:52.946Z,97282.95
2023-05-24T01:37:21.166Z,97284.02
2023-05-24T01:39:49.620Z,97283.52
2023-05-24T01:42:46.736Z,97281.52
2023-05-24T01:45:25.951Z,97275.97
2023-05-24T01:48:19.040Z,97272.85
2023-05-24T01:51:00.042Z,97267.59
2023-05-24T01:53:35.029Z,97265.08
2023-05-24T01:56:06.363Z,97264.52
2023-05-24T01:58:36.614Z,97265.48
2023-05-24T02:01:05.152Z,97264.08
2023-05-24T02:03:34.015Z,97264.95
2023-05-24T02:06:03.901Z,97261.32
2023-05-24T02:08:31.929Z,97257.98
2023-05-24T02:10:59.905Z,97260.41
2023-05-24T02:13:27.941Z,97259.55
2023-05-24T02:15:56.169Z,97258.39
2023-05-24T02:18:27.026Z,97261.75
2023-05-24T02:20:55.046Z,97268.66
2023-05-24T02:23:23.880Z,97271.29
2023-05-24T02:25:51.868Z,97273.83
2023-05-24T02:28:19.906Z,97273.75
2023-05-24T02:30:47.959Z,97272.58
2023-05-24T02:33:16.216Z,97272.31
2023-05-24T02:35:44.353Z,97272.91
2023-05-24T02:38:12.384Z,97273.31
2023-05-24T02:40:40.724Z,97268.73
2023-05-24T02:43:09.821Z,97269.14
2023-05-24T02:45:38.040Z,97270.23
2023-05-24T02:48:06.248Z,97272.48
2023-05-24T02:50:34.576Z,97279.57
2023-05-24T02:53:03.072Z,97284.19
2023-05-24T02:55:32.479Z,97286.91
2023-05-24T02:58:01.350Z,97287.44
2023-05-24T03:00:30.986Z,97290.10
2023-05-24T03:03:03.151Z,97292.58
2023-05-24T03:05:31.431Z,97296.24
2023-05-24T03:07:59.580Z,97295.45
2023-05-24T03:10:27.530Z,97296.48
2023-05-24T03:12:56.042Z,97299.02
2023-05-24T03:15:24.257Z,97294.48
2023-05-24T03:17:53.574Z,97295.02
2023-05-24T03:20:23.756Z,97293.38
2023-05-24T03:22:52.508Z,97290.96
2023-05-24T03:25:20.908Z,97285.73
2023-05-24T03:27:49.271Z,97280.27
2023-05-24T03:30:17.353Z,97278.69
2023-05-24T03:32:53.626Z,97271.99
2023-05-24T03:35:21.677Z,97269.28
2023-05-24T03:37:50.954Z,97268.57
2023-05-24T03:40:19.503Z,97270.80
2023-05-24T03:42:54.708Z,97275.80
2023-05-24T03:45:38.428Z,97282.82
2023-05-24T03:48:08.060Z,97279.20
2023-05-24T03:50:36.220Z,97278.30
2023-05-24T03:53:04.449Z,97280.10
2023-05-24T03:55:32.633Z,97280.54
2023-05-24T03:58:01.626Z,97274.39
2023-05-24T04:00:29.884Z,97275.33
2023-05-24T04:02:58.196Z,97276.66
2023-05-24T04:05:29.735Z,97276.33
2023-05-24T04:07:57.698Z,97274.77
2023-05-24T04:10:25.990Z,97269.44
2023-05-24T04:12:54.035Z,97270.36
2023-05-24T04:15:23.054Z,97269.65
2023-05-24T04:17:55.312Z,97269.16
2023-05-24T04:20:27.858Z,97267.42
2023-05-24T04:22:56.497Z,97264.66
2023-05-24T04:25:24.918Z,97264.33
2023-05-24T04:27:53.570Z,97261.95
2023-05-24T04:30:22.284Z,97255.77
2023-05-24T04:32:51.656Z,97251.79
2023-05-24T04:35:20.432Z,97251.83
2023-05-24T04:37:50.277Z,97244.89
2023-05-24T04:40:21.705Z,97239.33
2023-05-24T04:42:50.668Z,97238.36
2023-05-24T04:45:19.148Z,97232.03
2023-05-24T04:47:47.326Z,97232.91
2023-05-24T04:50:15.284Z,97231.80
2023-05-24T04:52:43.577Z,97235.64
2023-05-24T04:55:11.556Z,97241.11
2023-05-24T04:57:39.531Z,97242.61
2023-05-24T05:00:08.262Z,97244.59
2023-05-24T05:02:36.976Z,97245.41
2023-05-24T05:05:05.766Z,97252.39
2023-05-24T05:07:34.069Z,97254.55
2023-05-24T05:10:02.128Z,97256.78
2023-05-24T05:12:30.203Z,97259.92
2023-05-24T05:14:58.459Z,97263.91
2023-05-24T05:17:26.550Z,97262.13
2023-05-24T05:19:54.482Z,97260.91
2023-05-24T05:22:22.713Z,97261.27
2023-05-24T05:24:50.645Z,97265.13
2023-05-24T05:27:18.934Z,97265.03
2023-05-24T05:29:47.130Z,97265.79
2023-05-24T05:32:15.742Z,97269.65
2023-05-24T05:34:43.831Z,97268.75
2023-05-24T05:37:11.858Z,97273.23
2023-05-24T05:39:39.903Z,97269.82
2023-05-24T05:42:08.065Z,97276.63
2023-05-24T05:44:36.082Z,97277.00
2023-05-24T05:47:05.933Z,97278.49
2023-05-24T05:49:36.576Z,97276.43
2023-05-24T05:52:06.012Z,97279.48
2023-05-24T05:54:34.361Z,97282.09
2023-05-24T05:57:02.404Z,97286.94
2023-05-24T05:59:30.427Z,97290.73
2023-05-24T06:01:58.273Z,97292.14
2023-05-24T06:04:26.523Z,97291.56
2023-05-24T06:06:54.598Z,97289.95
2023-05-24T06:09:22.677Z,97291.27
2023-05-24T06:11:50.614Z,97296.91
2023-05-24T06:14:20.007Z,97296.48
2023-05-24T06:16:48.527Z,97292.66
2023-05-24T06:19:17.155Z,97293.36
2023-05-24T06:21:48.522Z,97290.80
2023-05-24T06:24:21.466Z,97293.05
2023-05-24T06:26:52.540Z,97293.09
2023-05-24T06:29:21.933Z,97295.49
2023-05-24T06:31:50.924Z,97293.23
2023-05-24T06:34:21.527Z,97292.11
2023-05-24T06:36:51.527Z,97296.59
2023-05-24T06:39:19.877Z,97297.06
2023-05-24T06:41:48.301Z,97298.05
2023-05-24T06:44:16.629Z,97296.02
2023-05-24T06:46:45.162Z,97293.88
2023-05-24T06:49:13.265Z,97290.52
2023-05-24T06:51:41.208Z,97289.08
2023-05-24T06:54:09.252Z,97287.45
2023-05-24T06:56:37.384Z,97291.50
2023-05-24T06:59:06.080Z,97291.61
2023-05-24T07:01:34.400Z,97289.24
2023-05-24T07:04:02.487Z,97289.63
2023-05-24T07:06:30.395Z,97292.78
2023-05-24T07:08:58.549Z,97294.70
2023-05-24T07:11:27.556Z,97296.41
2023-05-24T07:13:55.815Z,97294.27
2023-05-24T07:16:24.153Z,97291.44
2023-05-24T07:18:52.058Z,97289.69
2023-05-24T07:21:20.209Z,97289.23
2023-05-24T07:23:49.626Z,97290.59
2023-05-24T07:26:18.152Z,97287.40
2023-05-24T07:28:46.500Z,97287.02
2023-05-24T07:31:14.669Z,97291.23
2023-05-24T07:33:42.723Z,97292.56
2023-05-24T07:36:10.901Z,97290.05
2023-05-24T07:38:39.153Z,97289.55
2023-05-24T07:41:07.516Z,97291.15
2023-05-24T07:43:37.734Z,97290.41
2023-05-24T07:46:05.885Z,97288.52
2023-05-24T07:48:34.084Z,97291.70
2023-05-24T07:51:02.076Z,97294.30
2023-05-24T07:53:30.280Z,97296.40
2023-05-24T07:55:58.308Z,97298.40
2023-05-24T07:58:26.450Z,97302.59
2023-05-24T08:00:54.465Z,97305.65
2023-05-24T08:03:25.963Z,97301.50
2023-05-24T08:05:54.267Z,97298.41
2023-05-24T08:08:22.463Z,97295.47
2023-05-24T08:10:50.342Z,97293.62
2023-05-24T08:13:18.540Z,97294.58
2023-05-24T08:15:46.705Z,97299.58
2023-05-24T08:18:14.760Z,97303.54
2023-05-24T08:20:42.919Z,97301.45
2023-05-24T08:23:10.934Z,97302.47
2023-05-24T08:25:40.040Z,97302.95
2023-05-24T08:28:08.681Z,97301.91
2023-05-24T08:30:37.267Z,97301.37
2023-05-24T08:33:05.480Z,97297.84
2023-05-24T08:35:33.543Z,97294.91
2023-05-24T08:38:01.981Z,97291.75
2023-05-24T08:40:30.171Z,97292.76
2023-05-24T08:43:03.907Z,97292.36
2023-05-24T08:45:35.120Z,97294.66
2023-05-24T08:48:04.486Z,97298.14
2023-05-24T08:50:34.750Z,97298.81
2023-05-24T08:53:03.504Z,97303.31
2023-05-24T08:55:33.257Z,97300.95
2023-05-24T08:58:01.889Z,97301.76
2023-05-24T09:00:29.909Z,97299.68
2023-05-24T09:02:59.202Z,97298.36
2023-05-24T09:05:28.393Z,97298.77
2023-05-24T09:07:57.356Z,97299.68
2023-05-24T09:10:28.368Z,97308.81
2023-05-24T09:13:01.923Z,97307.32
2023-05-24T09:15:30.107Z,97311.91
2023-05-24T09:17:58.283Z,97312.84
2023-05-24T09:20:26.287Z,97313.14
2023-05-24T09:22:54.467Z,97316.18
2023-05-24T09:25:22.492Z,97313.91
2023-05-24T09:27:53.923Z,97313.77
2023-05-24T09:30:22.161Z,97314.05
2023-05-24T09:33:00.930Z,97317.33
2023-05-24T09:35:29.033Z,97314.46
2023-05-24T09:38:00.066Z,97316.33
2023-05-24T09:40:29.441Z,97315.88
2023-05-24T09:43:09.806Z,97314.99
2023-05-24T09:45:49.186Z,97315.21
2023-05-24T09:48:17.726Z,97322.06
2023-05-24T09:50:59.927Z,97322.98
2023-05-24T09:53:28.700Z,97319.08
2023-05-24T09:55:56.753Z,97313.45
2023-05-24T09:58:31.107Z,97316.14
2023-05-24T10:01:18.780Z,97314.23
2023-05-24T10:03:57.817Z,97313.60
2023-05-24T10:06:26.059Z,97312.66
2023-05-24T10:08:57.062Z,97304.89
2023-05-24T10:11:25.214Z,97303.98
2023-05-24T10:13:53.592Z,97298.79
2023-05-24T10:16:21.768Z,97297.15
2023-05-24T10:18:50.570Z,97296.73
2023-05-24T10:21:21.357Z,97297.48
2023-05-24T10:23:52.150Z,97296.66
2023-05-24T10:26:21.869Z,97296.96
2023-05-24T10:28:55.884Z,97296.48
2023-05-24T10:31:33.060Z,97298.38
2023-05-24T10:34:08.469Z,97300.86
2023-05-24T10:36:40.454Z,97304.04
2023-05-24T10:39:11.948Z,97302.30
2023-05-24T10:41:44.856Z,97309.00
2023-05-24T10:44:14.132Z,97308.27
2023-05-24T10:47:08.434Z,97312.63
2023-05-24T10:49:37.590Z,97312.23
2023-05-24T10:52:10.245Z,97310.03
2023-05-24T10:54:42.871Z,97315.95
2023-05-24T10:57:23.355Z,97331.27
2023-05-24T10:59:51.620Z,97359.17
2023-05-24T11:02:20.120Z,97407.44
2023-05-24T11:04:50.537Z,97422.80
2023-05-24T11:07:19.417Z,97416.61
2023-05-24T11:09:53.049Z,97431.39
2023-05-24T11:12:21.570Z,97439.17
2023-05-24T11:14:52.215Z,97451.04
2023-05-24T11:17:22.441Z,97462.58
2023-05-24T11:19:53.408Z,97471.48
2023-05-24T11:22:25.628Z,97475.30
2023-05-24T11:24:54.096Z,97482.73
2023-05-24T11:27:23.092Z,97487.27
2023-05-24T11:29:52.183Z,97485.96
2023-05-24T11:32:22.065Z,97488.94
2023-05-24T11:34:51.154Z,97485.88
2023-05-24T11:37:19.583Z,97486.52
2023-05-24T11:39:54.446Z,97484.66
2023-05-24T11:42:25.360Z,97490.77
2023-05-24T11:44:53.594Z,97499.67
2023-05-24T11:47:22.688Z,97501.80
2023-05-24T11:49:52.067Z,97505.59
2023-05-24T11:52:20.330Z,97511.08
2023-05-24T11:54:49.713Z,97513.00
2023-05-24T11:57:24.999Z,97514.46
2023-05-24T11:59:53.415Z,97509.09
2023-05-24T12:02:23.556Z,97504.59
2023-05-24T12:04:51.644Z,97502.67
2023-05-24T12:07:19.827Z,97501.29
2023-05-24T12:09:48.104Z,97499.30
2023-05-24T12:12:16.205Z,97496.98
2023-05-24T12:14:44.181Z,97495.55
2023-05-24T12:17:17.194Z,97493.79
2023-05-24T12:19:45.420Z,97492.82
2023-05-24T12:22:13.545Z,97490.61
2023-05-24T12:24:42.451Z,97488.64
2023-05-24T12:27:11.550Z,97481.66
2023-05-24T12:29:42.094Z,97485.58
2023-05-24T12:32:15.167Z,97486.02
2023-05-24T12:34:45.104Z,97478.95
2023-05-24T12:37:15.477Z,97474.42
2023-05-24T12:39:44.498Z,97473.36
2023-05-24T12:42:13.709Z,97469.82
2023-05-24T12:44:42.423Z,97464.05
2023-05-24T12:47:10.932Z,97460.59
2023-05-24T12:49:39.039Z,97451.10
2023-05-24T12:52:07.214Z,97444.80
2023-05-24T12:54:35.647Z,97442.77
2023-05-24T12:57:03.893Z,97436.94
2023-05-24T12:59:33.540Z,97436.52
2023-05-24T13:02:02.322Z,97434.70
2023-05-24T13:04:33.535Z,97436.13
2023-05-24T13:07:02.978Z,97436.88
2023-05-24T13:09:31.007Z,97442.06
2023-05-24T13:11:58.919Z,97442.36
2023-05-24T13:14:27.580Z,97441.61
2023-05-24T13:16:55.814Z,97439.19
2023-05-24T13:19:23.998Z,97438.46
2023-05-24T13:21:51.919Z,97436.75
2023-05-24T13:24:20.354Z,97427.87
2023-05-24T13:26:49.337Z,97425.10
2023-05-24T13:29:34.345Z,97424.72
2023-05-24T13:32:05.340Z,97416.24
2023-05-24T13:34:33.550Z,97416.50
2023-05-24T13:37:01.844Z,97413.34
2023-05-24T13:39:30.190Z,97412.26
2023-05-24T13:42:00.697Z,97405.85
2023-05-24T13:44:28.634Z,97402.83
2023-05-24T13:46:56.804Z,97399.43
2023-05-24T13:49:24.821Z,97395.60
2023-05-24T13:51:55.487Z,97397.90
2023-05-24T13:54:26.448Z,97397.85
2023-05-24T13:56:57.702Z,97399.99
2023-05-24T13:59:27.280Z,97396.67
2023-05-24T14:01:55.570Z,97396.39
2023-05-24T14:04:23.665Z,97391.54
2023-05-24T14:06:51.599Z,97388.03
2023-05-24T14:09:21.419Z,97389.27
2023-05-24T14:11:49.636Z,97388.36
2023-05-24T14:14:54.244Z,97384.84
2023-05-24T14:17:06.440Z,97378.69
2023-05-24T14:19:34.980Z,97375.77
2023-05-24T14:22:02.991Z,97374.75
2023-05-24T14:24:31.100Z,97374.31
2023-05-24T14:26:59.132Z,97373.30
2023-05-24T14:29:27.493Z,97371.88
2023-05-24T14:31:55.809Z,97371.84
2023-05-24T14:34:23.809Z,97373.90
2023-05-24T14:36:51.852Z,97373.24
2023-05-24T14:39:19.852Z,97373.30
2023-05-24T14:41:47.861Z,97377.83
2023-05-24T14:44:16.050Z,97378.20
2023-05-24T14:46:44.066Z,97378.59
2023-05-24T14:49:12.154Z,97379.69
2023-05-24T14:51:40.315Z,97373.84
2023-05-24T14:54:11.652Z,97375.70
2023-05-24T14:56:39.634Z,97375.95
2023-05-24T14:59:07.655Z,97375.86
2023-05-24T15:01:36.791Z,97376.14
2023-05-24T15:04:04.957Z,97375.39
2023-05-24T15:06:35.541Z,97378.55
2023-05-24T15:09:05.230Z,97379.39
2023-05-24T15:11:33.228Z,97383.23
2023-05-24T15:14:02.063Z,97384.96
2023-05-24T15:16:30.157Z,97386.70
2023-05-24T15:18:58.105Z,97388.59
2023-05-24T15:21:26.147Z,97385.27
2023-05-24T15:23:54.046Z,97387.98
2023-05-24T15:26:22.747Z,97389.23
2023-05-24T15:28:51.186Z,97388.96
2023-05-24T15:31:19.402Z,97389.95
2023-05-24T15:33:47.596Z,97391.77
2023-05-24T15:36:17.266Z,97394.33
2023-05-24T15:38:45.425Z,97398.48
2023-05-24T15:41:13.294Z,97401.52
2023-05-24T15:43:41.869Z,97402.34
2023-05-24T15:46:09.911Z,97407.49
2023-05-24T15:48:39.078Z,97410.73
2023-05-24T15:53:38.818Z,97413.11
2023-05-24T15:56:07.310Z,97414.84
2023-05-24T15:58:35.604Z,97416.36
2023-05-24T16:01:03.529Z,97417.39
2023-05-24T16:03:31.855Z,97415.73
2023-05-24T16:05:59.959Z,97414.04
2023-05-24T16:08:28.539Z,97415.57
2023-05-24T16:10:57.360Z,97412.95
2023-05-24T16:13:25.811Z,97410.67
2023-05-24T16:15:53.888Z,97408.42
2023-05-24T16:18:23.148Z,97407.77
2023-05-24T16:20:51.948Z,97408.66
2023-05-24T16:23:23.086Z,97415.52
2023-05-24T16:25:51.701Z,97419.07
2023-05-24T16:28:24.308Z,97420.56
2023-05-24T16:30:55.945Z,97419.31
2023-05-24T16:33:25.244Z,97418.86
2023-05-24T16:35:56.056Z,97424.09
2023-05-24T16:38:25.656Z,97421.01
2023-05-24T16:40:54.280Z,97420.02
2023-05-24T16:43:22.385Z,97419.48
2023-05-24T16:45:51.488Z,97422.49
2023-05-24T16:48:21.924Z,97423.60
2023-05-24T16:50:51.778Z,97423.45
2023-05-24T16:53:23.006Z,97426.27
2023-05-24T16:55:53.912Z,97426.75
2023-05-24T16:58:23.772Z,97421.86
2023-05-24T17:00:54.435Z,97418.02
2023-05-24T17:03:28.631Z,97419.71
2023-05-24T17:06:03.408Z,97421.07
2023-05-24T17:08:36.625Z,97426.81
2023-05-24T17:11:05.204Z,97427.90
2023-05-24T17:13:33.406Z,97429.89
2023-05-24T17:16:03.424Z,97430.48
2023-05-24T17:18:31.454Z,97435.20
2023-05-24T17:21:02.211Z,97434.58
2023-05-24T17:23:32.102Z,97434.50
2023-05-24T17:26:01.444Z,97438.35
2023-05-24T17:28:29.780Z,97438.55
2023-05-24T17:30:59.984Z,97437.73
2023-05-24T17:33:29.739Z,97436.16
2023-05-24T17:36:02.765Z,97433.30
2023-05-24T17:38:33.245Z,97431.30
2023-05-24T17:41:01.276Z,97429.27
2023-05-24T17:43:29.403Z,97430.63
2023-05-24T17:46:03.768Z,97431.31
2023-05-24T17:48:33.825Z,97430.61
2023-05-24T17:51:03.774Z,97431.73
2023-05-24T17:53:33.633Z,97432.88
2023-05-24T17:56:03.130Z,97431.86
2023-05-24T17:58:35.467Z,97433.02
2023-05-24T18:01:05.383Z,97431.48
2023-05-24T18:03:36.649Z,97435.82
2023-05-24T18:06:06.738Z,97434.73
2023-05-24T18:08:37.896Z,97438.76
2023-05-24T18:11:09.653Z,97442.66
2023-05-24T18:13:39.171Z,97450.00
2023-05-24T18:16:08.442Z,97449.24
2023-05-24T18:18:37.813Z,97449.77
2023-05-24T18:21:06.594Z,97451.40
2023-05-24T18:23:37.717Z,97457.73
2023-05-24T18:26:10.029Z,97462.58
2023-05-24T18:28:38.997Z,97464.15
2023-05-24T18:31:10.933Z,97463.85
2023-05-24T18:33:39.398Z,97465.06
2023-05-24T18:36:08.016Z,97465.23
2023-05-24T18:38:37.180Z,97469.30
2023-05-24T18:41:09.403Z,97473.01
2023-05-24T18:43:37.882Z,97474.45
2023-05-24T18:46:05.873Z,97477.58
2023-05-24T18:48:33.920Z,97483.77
2023-05-24T18:51:02.400Z,97487.92
2023-05-24T18:53:30.425Z,97489.64
2023-05-24T18:55:58.417Z,97493.73
2023-05-24T18:58:26.530Z,97495.05
2023-05-24T19:00:54.706Z,97502.46
2023-05-24T19:03:23.126Z,97508.59
2023-05-24T19:05:51.167Z,97509.60
2023-05-24T19:08:19.348Z,97507.04
2023-05-24T19:10:47.372Z,97504.27
2023-05-24T19:13:15.690Z,97503.02
2023-05-24T19:15:43.824Z,97503.92
2023-05-24T19:18:12.453Z,97506.45
2023-05-24T19:20:40.578Z,97505.05
2023-05-24T19:23:08.538Z,97508.45
2023-05-24T19:25:41.929Z,97506.18
2023-05-24T19:28:11.614Z,97504.11
2023-05-24T19:30:39.774Z,97505.22
2023-05-24T19:33:07.948Z,97508.08
2023-05-24T19:35:36.970Z,97505.15
2023-05-24T19:38:04.894Z,97502.32
2023-05-24T19:40:33.057Z,97504.29
2023-05-24T19:43:01.337Z,97509.08
2023-05-24T19:45:29.378Z,97513.98
2023-05-24T19:47:57.485Z,97514.41
2023-05-24T19:50:25.956Z,97514.08
2023-05-24T19:52:54.080Z,97513.48
2023-05-24T19:55:22.446Z,97512.42
2023-05-24T19:57:50.553Z,97513.71
2023-05-24T20:00:19.539Z,97515.45
2023-05-24T20:02:47.679Z,97513.23
2023-05-24T20:05:17.377Z,97512.87
2023-05-24T20:07:45.798Z,97510.67
2023-05-24T20:10:13.714Z,97513.91
2023-05-24T20:12:42.849Z,97513.08
2023-05-24T20:15:11.636Z,97509.33
2023-05-24T20:17:39.873Z,97511.41
2023-05-24T20:20:08.363Z,97514.01
2023-05-24T20:22:36.507Z,97516.76
2023-05-24T20:25:04.920Z,97517.86
2023-05-24T20:27:32.913Z,97513.19
2023-05-24T20:30:00.834Z,97516.48
2023-05-24T20:32:28.893Z,97518.66
2023-05-24T20:34:56.845Z,97519.02
2023-05-24T20:37:24.988Z,97518.81
2023-05-24T20:39:53.029Z,97521.69
2023-05-24T20:42:20.995Z,97522.17
2023-05-24T20:44:48.909Z,97523.06
2023-05-24T20:47:19.053Z,97528.21
2023-05-24T20:49:46.927Z,97532.77
2023-05-24T20:52:16.243Z,97534.77
2023-05-24T20:54:44.173Z,97545.60
2023-05-24T20:57:12.079Z,97550.13
2023-05-24T20:59:40.412Z,97550.06
2023-05-24T21:02:08.473Z,97554.17
2023-05-24T21:04:36.619Z,97556.23
2023-05-24T21:07:04.960Z,97555.98
2023-05-24T21:09:32.827Z,97556.08
2023-05-24T21:12:01.707Z,97557.42
2023-05-24T21:14:30.985Z,97559.20
2023-05-24T21:16:59.170Z,97561.91
2023-05-24T21:19:27.222Z,97567.67
2023-05-24T21:21:55.321Z,97571.16
2023-05-24T21:24:23.453Z,97569.85
2023-05-24T21:26:51.460Z,97568.98
2023-05-24T21:29:19.882Z,97567.14
2023-05-24T21:31:48.600Z,97564.83
2023-05-24T21:34:16.561Z,97565.02
2023-05-24T21:36:44.481Z,97569.77
2023-05-24T21:39:12.647Z,97569.60
2023-05-24T21:41:40.847Z,97568.94
2023-05-24T21:44:09.284Z,97567.51
2023-05-24T21:46:37.383Z,97566.42
2023-05-24T21:49:05.500Z,97566.30
2023-05-24T21:51:33.826Z,97568.73
2023-05-24T21:54:01.965Z,97569.39
2023-05-24T21:56:30.058Z,97567.52
2023-05-24T21:58:58.137Z,97564.95
2023-05-24T22:01:28.407Z,97570.81
2023-05-24T22:03:56.842Z,97574.81
2023-05-24T22:06:24.897Z,97575.05
2023-05-24T22:08:52.855Z,97573.92
2023-05-24T22:11:21.354Z,97579.15
2023-05-24T22:13:49.442Z,97578.55
2023-05-24T22:16:17.728Z,97575.45
2023-05-24T22:18:45.675Z,97574.45
2023-05-24T22:21:14.479Z,97571.54
2023-05-24T22:23:44.156Z,97568.49
2023-05-24T22:26:12.965Z,97568.94
2023-05-24T22:28:50.805Z,97567.45
2023-05-24T22:31:19.872Z,97567.84
2023-05-24T22:33:51.100Z,97568.09
2023-05-24T22:36:19.140Z,97568.23
2023-05-24T22:38:47.207Z,97569.02
2023-05-24T22:41:15.592Z,97569.61
2023-05-24T22:43:43.995Z,97567.01
2023-05-24T22:46:11.986Z,97569.84
2023-05-24T22:48:40.659Z,97566.52
2023-05-24T22:51:09.334Z,97563.71
2023-05-24T22:53:39.479Z,97565.73
2023-05-24T22:56:10.537Z,97565.19
2023-05-24T22:58:38.999Z,97560.74
2023-05-24T23:01:07.201Z,97562.73
2023-05-24T23:03:35.661Z,97566.67
2023-05-24T23:06:04.208Z,97566.63
2023-05-24T23:08:33.357Z,97563.33
2023-05-24T23:11:01.661Z,97565.75
2023-05-24T23:13:33.387Z,97567.65
2023-05-24T23:16:01.652Z,97567.58
2023-05-24T23:18:29.903Z,97569.50
2023-05-24T23:20:58.045Z,97572.35
2023-05-24T23:23:27.352Z,97569.56
2023-05-24T23:25:56.475Z,97567.98
2023-05-24T23:28:24.647Z,97562.47
2023-05-24T23:30:53.733Z,97560.00
2023-05-24T23:33:22.029Z,97557.70
2023-05-24T23:35:50.081Z,97557.49
2023-05-24T23:38:18.359Z,97555.02
2023-05-24T23:40:46.308Z,97559.27
2023-05-24T23:43:14.944Z,97557.48
2023-05-24T23:45:43.293Z,97556.89
2023-05-24T23:48:11.634Z,97559.05
2023-05-24T23:50:53.161Z,97556.76
2023-05-24T23:53:21.816Z,97558.09
2023-05-24T23:55:49.906Z,97560.67
2023-05-24T23:58:18.167Z,97565.15
